Coin, Iowa
Current Conditions -  °F | °C
As of 11:55 PM on Saturday 22 Nov 2014 (Local Time) from KICL Reporting Station
Overcast Overcast  
Wind Chill: 12°   Ceiling: 700
Heat Index: 12°   Visibility: 9mi
Dew Point: 11°   Wind: 13mph
Humidity: 94%   Direction: 180°S
Pressure: 29.65"   Gusts: NA
Location:  40.65°N, 95.23°W
Report Text: KICL 230555Z AUTO 18011KT 9SM OVC007 12/11 A2965 RMK AO2
Loading
Personal Weather Stations






























Interactive Weather Map New forecast layout! Learn more

10-Day Weather Forecast

Advertisements
Track Severe Weather on mobile